Achille, Oklahoma
Current Conditions -  °F | °C
As of 2:15 AM on Sunday 21 Dec 2014 (Local Time) from KDUA Reporting Station
Haze Haze  
Wind Chill: 45°   Ceiling: 800
Heat Index: 45°   Visibility: 5mi
Dew Point: 45°   Wind: 0mph
Humidity: 100%   Direction: NA
Pressure: 30.16"   Gusts: NA
Location:  33.83°N, 96.39°W
Report Text: KDUA 210815Z AUTO 00000KT 5SM BR BKN008 OVC035 07/07 A3016 RMK AO2
Loading
Personal Weather Stations






























Interactive Weather Map New forecast layout! Learn more

10-Day Weather Forecast

Advertisements
Track Severe Weather on mobile